sensor_id;sensor_type;location;lat;lon;timestamp;P1;durP1;ratioP1;P2;durP2;ratioP2
52072;SDS011;38074;51.232;6.826;2023-05-10T00:00:35;0.45;;;0.30;;
52072;SDS011;38074;51.232;6.826;2023-05-10T00:07:51;0.70;;;0.10;;
52072;SDS011;38074;51.232;6.826;2023-05-10T00:15:07;0.20;;;0.10;;
52072;SDS011;38074;51.232;6.826;2023-05-10T00:22:23;0.40;;;0.10;;
52072;SDS011;38074;51.232;6.826;2023-05-10T00:29:39;0.10;;;0.10;;
52072;SDS011;38074;51.232;6.826;2023-05-10T00:36:54;0.10;;;0.10;;
52072;SDS011;38074;51.232;6.826;2023-05-10T00:44:10;1.42;;;0.13;;
52072;SDS011;38074;51.232;6.826;2023-05-10T00:51:25;0.20;;;0.10;;
52072;SDS011;38074;51.232;6.826;2023-05-10T00:58:41;0.10;;;0.10;;
52072;SDS011;38074;51.232;6.826;2023-05-10T01:05:57;0.20;;;0.10;;
52072;SDS011;38074;51.232;6.826;2023-05-10T01:13:13;0.20;;;0.10;;
52072;SDS011;38074;51.232;6.826;2023-05-10T01:20:32;0.10;;;0.10;;
52072;SDS011;38074;51.232;6.826;2023-05-10T01:28:01;0.20;;;0.10;;
52072;SDS011;38074;51.232;6.826;2023-05-10T01:42:56;0.30;;;0.10;;
52072;SDS011;38074;51.232;6.826;2023-05-10T01:50:22;0.10;;;0.10;;
52072;SDS011;38074;51.232;6.826;2023-05-10T01:57:42;0.10;;;0.10;;
52072;SDS011;38074;51.232;6.826;2023-05-10T02:04:59;0.15;;;0.10;;
52072;SDS011;38074;51.232;6.826;2023-05-10T02:12:16;0.47;;;0.20;;
52072;SDS011;38074;51.232;6.826;2023-05-10T03:42:16;0.10;;;0.10;;
52072;SDS011;38074;51.232;6.826;2023-05-10T03:49:32;0.25;;;0.10;;
52072;SDS011;38074;51.232;6.826;2023-05-10T03:56:48;0.33;;;0.20;;
52072;SDS011;38074;51.232;6.826;2023-05-10T04:04:03;0.15;;;0.10;;
52072;SDS011;38074;51.232;6.826;2023-05-10T04:11:19;0.40;;;0.20;;
52072;SDS011;38074;51.232;6.826;2023-05-10T04:18:36;0.10;;;0.10;;
52072;SDS011;38074;51.232;6.826;2023-05-10T04:25:52;0.50;;;0.30;;
52072;SDS011;38074;51.232;6.826;2023-05-10T04:33:07;0.40;;;0.40;;
52072;SDS011;38074;51.232;6.826;2023-05-10T04:40:23;0.40;;;0.10;;
52072;SDS011;38074;51.232;6.826;2023-05-10T04:47:39;0.30;;;0.20;;
52072;SDS011;38074;51.232;6.826;2023-05-10T04:54:54;0.30;;;0.17;;
52072;SDS011;38074;51.232;6.826;2023-05-10T05:02:11;0.37;;;0.20;;
52072;SDS011;38074;51.232;6.826;2023-05-10T05:09:26;0.70;;;0.40;;
52072;SDS011;38074;51.232;6.826;2023-05-10T05:16:42;0.40;;;0.30;;
52072;SDS011;38074;51.232;6.826;2023-05-10T05:24:00;4.33;;;0.80;;
52072;SDS011;38074;51.232;6.826;2023-05-10T05:31:16;12.63;;;3.80;;
52072;SDS011;38074;51.232;6.826;2023-05-10T05:45:59;10.97;;;2.87;;
52072;SDS011;38074;51.232;6.826;2023-05-10T05:53:17;11.07;;;2.70;;
52072;SDS011;38074;51.232;6.826;2023-05-10T06:00:33;9.30;;;2.28;;
52072;SDS011;38074;51.232;6.826;2023-05-10T06:07:55;11.25;;;2.28;;
52072;SDS011;38074;51.232;6.826;2023-05-10T06:15:42;16.15;;;2.85;;
52072;SDS011;38074;51.232;6.826;2023-05-10T06:22:58;5.18;;;1.90;;
52072;SDS011;38074;51.232;6.826;2023-05-10T06:30:17;9.15;;;1.80;;
52072;SDS011;38074;51.232;6.826;2023-05-10T06:37:50;7.15;;;2.90;;
52072;SDS011;38074;51.232;6.826;2023-05-10T06:45:06;10.63;;;3.70;;
52072;SDS011;38074;51.232;6.826;2023-05-10T06:52:23;8.23;;;5.20;;
52072;SDS011;38074;51.232;6.826;2023-05-10T06:59:39;9.40;;;5.55;;
52072;SDS011;38074;51.232;6.826;2023-05-10T07:06:54;8.32;;;4.78;;
52072;SDS011;38074;51.232;6.826;2023-05-10T07:14:09;7.80;;;5.00;;
52072;SDS011;38074;51.232;6.826;2023-05-10T07:21:25;9.03;;;5.70;;
52072;SDS011;38074;51.232;6.826;2023-05-10T07:28:43;9.63;;;5.60;;
52072;SDS011;38074;51.232;6.826;2023-05-10T07:35:58;9.50;;;5.87;;
52072;SDS011;38074;51.232;6.826;2023-05-10T07:43:15;8.23;;;5.60;;
52072;SDS011;38074;51.232;6.826;2023-05-10T07:50:30;7.70;;;4.77;;
52072;SDS011;38074;51.232;6.826;2023-05-10T07:57:46;7.93;;;4.20;;
52072;SDS011;38074;51.232;6.826;2023-05-10T08:05:02;5.25;;;3.28;;
52072;SDS011;38074;51.232;6.826;2023-05-10T08:12:17;7.57;;;4.82;;
52072;SDS011;38074;51.232;6.826;2023-05-10T08:19:33;13.00;;;8.07;;
52072;SDS011;38074;51.232;6.826;2023-05-10T08:26:49;15.15;;;9.82;;
52072;SDS011;38074;51.232;6.826;2023-05-10T08:34:04;16.50;;;10.03;;
52072;SDS011;38074;51.232;6.826;2023-05-10T08:41:20;18.63;;;12.43;;
52072;SDS011;38074;51.232;6.826;2023-05-10T08:48:36;17.27;;;11.60;;
52072;SDS011;38074;51.232;6.826;2023-05-10T08:55:53;17.25;;;11.45;;
52072;SDS011;38074;51.232;6.826;2023-05-10T09:10:26;16.47;;;11.43;;
52072;SDS011;38074;51.232;6.826;2023-05-10T09:17:42;17.98;;;10.95;;
52072;SDS011;38074;51.232;6.826;2023-05-10T09:25:09;15.18;;;10.10;;
52072;SDS011;38074;51.232;6.826;2023-05-10T09:32:35;15.07;;;8.93;;
52072;SDS011;38074;51.232;6.826;2023-05-10T09:39:54;11.32;;;6.93;;
52072;SDS011;38074;51.232;6.826;2023-05-10T09:47:10;8.90;;;6.07;;
52072;SDS011;38074;51.232;6.826;2023-05-10T09:54:33;11.07;;;6.57;;
52072;SDS011;38074;51.232;6.826;2023-05-10T10:01:49;8.37;;;5.60;;
52072;SDS011;38074;51.232;6.826;2023-05-10T10:09:06;6.60;;;4.40;;
52072;SDS011;38074;51.232;6.826;2023-05-10T10:16:22;8.82;;;6.15;;
52072;SDS011;38074;51.232;6.826;2023-05-10T10:23:39;8.57;;;5.28;;
52072;SDS011;38074;51.232;6.826;2023-05-10T10:30:55;7.85;;;4.53;;
52072;SDS011;38074;51.232;6.826;2023-05-10T10:38:16;5.55;;;4.00;;
52072;SDS011;38074;51.232;6.826;2023-05-10T10:45:32;6.60;;;4.38;;
52072;SDS011;38074;51.232;6.826;2023-05-10T10:52:47;7.20;;;4.53;;
52072;SDS011;38074;51.232;6.826;2023-05-10T11:07:50;6.82;;;3.47;;
52072;SDS011;38074;51.232;6.826;2023-05-10T11:15:10;6.28;;;3.50;;
52072;SDS011;38074;51.232;6.826;2023-05-10T11:22:25;8.30;;;4.30;;
52072;SDS011;38074;51.232;6.826;2023-05-10T11:29:41;10.53;;;5.17;;
52072;SDS011;38074;51.232;6.826;2023-05-10T11:36:59;6.47;;;4.55;;
52072;SDS011;38074;51.232;6.826;2023-05-10T11:44:15;10.13;;;5.88;;
52072;SDS011;38074;51.232;6.826;2023-05-10T11:51:33;6.30;;;4.85;;
52072;SDS011;38074;51.232;6.826;2023-05-10T11:58:54;5.32;;;4.18;;
52072;SDS011;38074;51.232;6.826;2023-05-10T12:06:11;5.15;;;3.58;;
52072;SDS011;38074;51.232;6.826;2023-05-10T12:13:26;5.97;;;3.65;;
52072;SDS011;38074;51.232;6.826;2023-05-10T12:20:43;3.45;;;3.05;;
52072;SDS011;38074;51.232;6.826;2023-05-10T12:27:59;4.72;;;3.40;;
52072;SDS011;38074;51.232;6.826;2023-05-10T12:35:18;4.15;;;3.20;;
52072;SDS011;38074;51.232;6.826;2023-05-10T12:42:39;3.53;;;2.70;;
52072;SDS011;38074;51.232;6.826;2023-05-10T12:49:54;3.97;;;2.80;;
52072;SDS011;38074;51.232;6.826;2023-05-10T12:57:10;3.85;;;2.97;;
52072;SDS011;38074;51.232;6.826;2023-05-10T13:04:25;4.83;;;3.20;;
52072;SDS011;38074;51.232;6.826;2023-05-10T13:11:41;3.70;;;2.23;;
52072;SDS011;38074;51.232;6.826;2023-05-10T13:18:57;3.97;;;2.30;;
52072;SDS011;38074;51.232;6.826;2023-05-10T13:26:13;3.80;;;2.67;;
52072;SDS011;38074;51.232;6.826;2023-05-10T13:33:28;3.50;;;2.58;;
52072;SDS011;38074;51.232;6.826;2023-05-10T13:40:44;4.57;;;2.80;;
52072;SDS011;38074;51.232;6.826;2023-05-10T13:47:59;3.45;;;2.70;;
52072;SDS011;38074;51.232;6.826;2023-05-10T13:55:15;3.90;;;2.70;;
52072;SDS011;38074;51.232;6.826;2023-05-10T14:02:30;6.43;;;2.40;;
52072;SDS011;38074;51.232;6.826;2023-05-10T14:09:46;3.25;;;2.55;;
52072;SDS011;38074;51.232;6.826;2023-05-10T14:17:02;2.70;;;2.43;;
52072;SDS011;38074;51.232;6.826;2023-05-10T14:24:17;3.80;;;2.23;;
52072;SDS011;38074;51.232;6.826;2023-05-10T14:31:33;3.73;;;2.67;;
52072;SDS011;38074;51.232;6.826;2023-05-10T14:38:48;2.70;;;2.30;;
52072;SDS011;38074;51.232;6.826;2023-05-10T14:46:04;3.33;;;2.22;;
52072;SDS011;38074;51.232;6.826;2023-05-10T14:53:19;2.50;;;2.10;;
52072;SDS011;38074;51.232;6.826;2023-05-10T15:00:35;2.60;;;1.85;;
52072;SDS011;38074;51.232;6.826;2023-05-10T15:07:50;2.50;;;2.17;;
52072;SDS011;38074;51.232;6.826;2023-05-10T15:15:06;2.63;;;2.00;;
52072;SDS011;38074;51.232;6.826;2023-05-10T15:22:22;2.50;;;1.77;;
52072;SDS011;38074;51.232;6.826;2023-05-10T15:29:38;2.30;;;1.90;;
52072;SDS011;38074;51.232;6.826;2023-05-10T15:36:53;2.17;;;1.55;;
52072;SDS011;38074;51.232;6.826;2023-05-10T15:44:09;2.80;;;1.70;;
52072;SDS011;38074;51.232;6.826;2023-05-10T15:51:25;1.93;;;1.50;;
52072;SDS011;38074;51.232;6.826;2023-05-10T15:58:40;2.55;;;1.77;;
52072;SDS011;38074;51.232;6.826;2023-05-10T16:05:57;2.10;;;1.48;;
52072;SDS011;38074;51.232;6.826;2023-05-10T16:13:13;2.05;;;1.70;;
52072;SDS011;38074;51.232;6.826;2023-05-10T16:20:29;1.83;;;1.40;;
52072;SDS011;38074;51.232;6.826;2023-05-10T16:27:46;2.63;;;1.67;;
52072;SDS011;38074;51.232;6.826;2023-05-10T16:35:02;1.80;;;1.40;;
52072;SDS011;38074;51.232;6.826;2023-05-10T16:42:18;1.20;;;1.00;;
52072;SDS011;38074;51.232;6.826;2023-05-10T16:49:35;2.00;;;1.15;;
52072;SDS011;38074;51.232;6.826;2023-05-10T16:56:51;2.40;;;1.45;;
52072;SDS011;38074;51.232;6.826;2023-05-10T17:04:06;2.30;;;1.10;;
52072;SDS011;38074;51.232;6.826;2023-05-10T17:11:22;3.17;;;1.23;;
52072;SDS011;38074;51.232;6.826;2023-05-10T17:18:39;1.60;;;1.30;;
52072;SDS011;38074;51.232;6.826;2023-05-10T17:25:55;1.98;;;1.20;;
52072;SDS011;38074;51.232;6.826;2023-05-10T17:33:11;1.58;;;0.90;;
52072;SDS011;38074;51.232;6.826;2023-05-10T17:40:26;2.38;;;0.90;;
52072;SDS011;38074;51.232;6.826;2023-05-10T17:47:42;2.40;;;1.13;;
52072;SDS011;38074;51.232;6.826;2023-05-10T17:54:58;1.80;;;0.80;;
52072;SDS011;38074;51.232;6.826;2023-05-10T18:02:13;2.37;;;0.90;;
52072;SDS011;38074;51.232;6.826;2023-05-10T18:09:29;1.50;;;0.73;;
52072;SDS011;38074;51.232;6.826;2023-05-10T18:16:45;2.83;;;0.60;;
52072;SDS011;38074;51.232;6.826;2023-05-10T18:24:01;10.30;;;1.45;;
52072;SDS011;38074;51.232;6.826;2023-05-10T18:31:16;3.78;;;1.10;;
52072;SDS011;38074;51.232;6.826;2023-05-10T18:38:32;7.88;;;1.33;;
52072;SDS011;38074;51.232;6.826;2023-05-10T18:45:47;7.35;;;1.20;;
52072;SDS011;38074;51.232;6.826;2023-05-10T18:53:05;5.32;;;1.17;;
52072;SDS011;38074;51.232;6.826;2023-05-10T19:00:20;5.55;;;1.25;;
52072;SDS011;38074;51.232;6.826;2023-05-10T19:07:36;6.50;;;1.77;;
52072;SDS011;38074;51.232;6.826;2023-05-10T19:14:51;5.60;;;1.40;;
52072;SDS011;38074;51.232;6.826;2023-05-10T19:22:07;3.70;;;0.93;;
52072;SDS011;38074;51.232;6.826;2023-05-10T19:29:22;4.97;;;1.30;;
52072;SDS011;38074;51.232;6.826;2023-05-10T19:36:38;4.00;;;1.20;;
52072;SDS011;38074;51.232;6.826;2023-05-10T19:43:54;7.18;;;1.25;;
52072;SDS011;38074;51.232;6.826;2023-05-10T19:51:09;7.97;;;1.25;;
52072;SDS011;38074;51.232;6.826;2023-05-10T19:58:25;3.53;;;0.97;;
52072;SDS011;38074;51.232;6.826;2023-05-10T20:12:58;3.28;;;0.85;;
52072;SDS011;38074;51.232;6.826;2023-05-10T20:20:14;3.87;;;0.93;;
52072;SDS011;38074;51.232;6.826;2023-05-10T20:27:30;2.55;;;1.02;;
52072;SDS011;38074;51.232;6.826;2023-05-10T20:34:45;3.87;;;0.93;;
52072;SDS011;38074;51.232;6.826;2023-05-10T20:42:01;2.80;;;0.90;;
52072;SDS011;38074;51.232;6.826;2023-05-10T20:49:17;2.63;;;1.00;;
52072;SDS011;38074;51.232;6.826;2023-05-10T20:56:33;5.15;;;1.00;;
52072;SDS011;38074;51.232;6.826;2023-05-10T21:03:49;3.75;;;0.73;;
52072;SDS011;38074;51.232;6.826;2023-05-10T21:11:04;1.90;;;0.57;;
52072;SDS011;38074;51.232;6.826;2023-05-10T21:18:20;1.43;;;0.70;;
52072;SDS011;38074;51.232;6.826;2023-05-10T21:25:36;6.07;;;1.02;;
52072;SDS011;38074;51.232;6.826;2023-05-10T21:32:51;1.73;;;0.90;;
52072;SDS011;38074;51.232;6.826;2023-05-10T21:40:09;1.90;;;0.77;;
52072;SDS011;38074;51.232;6.826;2023-05-10T21:47:25;2.30;;;0.80;;
52072;SDS011;38074;51.232;6.826;2023-05-10T21:54:41;4.30;;;0.80;;
52072;SDS011;38074;51.232;6.826;2023-05-10T22:01:57;2.38;;;0.60;;
52072;SDS011;38074;51.232;6.826;2023-05-10T22:09:12;0.80;;;0.43;;
52072;SDS011;38074;51.232;6.826;2023-05-10T22:16:28;2.30;;;0.50;;
52072;SDS011;38074;51.232;6.826;2023-05-10T22:23:43;1.37;;;0.40;;
52072;SDS011;38074;51.232;6.826;2023-05-10T22:30:59;1.10;;;0.40;;
52072;SDS011;38074;51.232;6.826;2023-05-10T22:38:14;1.50;;;0.50;;
52072;SDS011;38074;51.232;6.826;2023-05-10T22:45:30;0.57;;;0.20;;
52072;SDS011;38074;51.232;6.826;2023-05-10T22:52:45;1.40;;;0.32;;
52072;SDS011;38074;51.232;6.826;2023-05-10T23:00:01;1.93;;;0.50;;
52072;SDS011;38074;51.232;6.826;2023-05-10T23:14:33;0.80;;;0.50;;
52072;SDS011;38074;51.232;6.826;2023-05-10T23:21:49;1.63;;;0.40;;
52072;SDS011;38074;51.232;6.826;2023-05-10T23:29:04;1.80;;;0.40;;
52072;SDS011;38074;51.232;6.826;2023-05-10T23:36:20;0.60;;;0.30;;
52072;SDS011;38074;51.232;6.826;2023-05-10T23:43:35;0.97;;;0.30;;
52072;SDS011;38074;51.232;6.826;2023-05-10T23:50:51;0.87;;;0.30;;
52072;SDS011;38074;51.232;6.826;2023-05-10T23:58:06;0.93;;;0.30;;
